• Join FlightAware (Why Join?)
  • Login
  • US Flag 
08:20AM EDT


 

Airport Tracker/Info


-or-


 

Live Flight TrackerFlight Track Log ✈ BCY5280 ✈ 17-May-2013 ✈ LIRQ / FLR - EGLC / LCY

Flight Track Log - Related Links

Times and Time Zones

All times are in EDT time to prevent confusion due to time zone crossing. See the BCY5280 flight status page for this flight to view local times or setup timezone preferences in your user account.

Time Position Orientation Groundspeed Altitude Reporting Facility
EDT Latitude Longitude Course Direction KTS MPH feet Rate Location/Type
08:10AM 43.8140 11.0450 285° West 203 234 4,100  Level FlightAware
08:11AM 43.8360 11.0190 320° Northwest 235 270 5,200 2,220 Climbing FlightAware
08:12AM 43.9010 11.0560 22° Northeast 254 292 7,500 1,980 Climbing FlightAware
08:12AM 43.9260 11.0650 15° North 244 281 8,200 1,800 Climbing FlightAware
08:13AM 43.9510 11.0490 335° Northwest 231 266 9,000 1,800 Climbing FlightAware
08:13AM 43.9740 11.0100 309° West 239 275 9,900 1,200 Climbing FlightAware
08:14AM 43.9940 10.9610 300° West 265 305 10,300 1,020 Climbing FlightAware
08:14AM 44.0160 10.8970 296° West 285 328 11,200 1,500 Climbing FlightAware
08:15AM 44.0440 10.8210 297° West 303 349 12,500 1,680 Climbing FlightAware
08:16AM 44.0860 10.7630 315° West 322 371 13,600 1,560 Climbing FlightAware
08:17AM 44.1370 10.7190 328° Northwest 335 386 14,600 1,020 Climbing FlightAware
08:17AM 44.2000 10.6710 331° Northwest 352 405 15,100 1,020 Climbing FlightAware
08:18AM 44.2600 10.6250 331° Northwest 369 425 16,100 1,320 Climbing FlightAware
08:21AM 44.4138 10.4406 319° Northwest  Level Estimated
08:22AM 44.4741 10.3680 319° Northwest  Level Estimated
08:23AM 44.5343 10.2953 319° Northwest  Level Estimated
08:23AM 44.7510 10.2300 319° Northwest 424 488 22,800  Level FlightAware
08:24AM 44.8230 10.1710 330° Northwest 431 496 23,300 780 Climbing FlightAware
08:24AM 44.8810 10.1240 330° Northwest 437 503 23,800 780 Climbing FlightAware
08:25AM 44.9520 10.0660 330° Northwest 442 509 24,300 780 Climbing FlightAware
08:26AM 45.0210 10.0100 330° Northwest 445 512 24,900 960 Climbing FlightAware
08:26AM 45.1060 9.9400 330° Northwest 446 513 25,700 720 Climbing FlightAware
08:27AM 45.1730 9.8850 330° Northwest 455 524 26,000 660 Climbing FlightAware
08:28AM 45.2580 9.8140 330° Northwest 458 527 26,700 600 Climbing FlightAware
08:28AM 45.3310 9.7530 330° Northwest 466 536 26,900 600 Climbing FlightAware
08:29AM 45.3930 9.7010 330° Northwest 469 540 27,500 840 Climbing FlightAware
08:30AM 45.4880 9.6200 329° Northwest 467 537 28,100 780 Climbing FlightAware
08:31AM 45.5620 9.5570 329° Northwest 455 524 28,700 720 Climbing FlightAware
08:31AM 45.6360 9.4950 330° Northwest 455 524 29,100 600 Climbing FlightAware
08:32AM 45.7150 9.4280 329° Northwest 455 524 29,600 600 Climbing FlightAware
08:33AM 45.7930 9.3620 329° Northwest 455 524 30,000 480 Climbing FlightAware
08:33AM 45.8480 9.3150 329° Northwest 455 524 30,200 480 Climbing FlightAware
08:34AM 45.9300 9.2450 329° Northwest 457 526 30,600 480 Climbing FlightAware
08:35AM 46.0120 9.1740 329° Northwest 466 536 30,900 480 Climbing FlightAware
08:35AM 46.0850 9.1110 329° Northwest 466 536 31,300 660 Climbing FlightAware
08:36AM 46.1650 9.0650 338° Northwest 449 517 31,800 540 Climbing FlightAware
08:37AM 46.2390 9.0490 351° North 455 524 32,000 120 Climbing FlightAware
08:37AM 46.3140 9.0400 355° North 464 534 32,000  Level FlightAware
08:38AM 46.4100 9.0280 355° North 469 540 32,000  Level FlightAware
08:38AM 46.4870 9.0170 354° North 468 539 32,000  Level FlightAware
08:39AM 46.5870 9.0020 354° North 466 536 32,000  Level FlightAware
08:40AM 46.6690 8.9880 353° North 463 533 32,000  Level FlightAware
08:40AM 46.7350 8.9780 354° North 463 533 32,000  Level FlightAware
08:41AM 46.8410 8.9620 354° North 466 536 32,000  Level FlightAware
08:42AM 46.9030 8.9510 353° North 466 536 32,000  Level FlightAware
08:42AM 46.9700 8.9400 354° North 460 529 32,000  Level FlightAware
08:43AM 47.0310 8.9190 347° North 468 539 32,000  Level FlightAware
08:43AM 47.0490 8.9010 326° Northwest 466 536 32,000  Level FlightAware
08:44AM 47.1090 8.8100 314° West 469 540 32,000  Level FlightAware
08:44AM 47.1680 8.7140 312° West 469 540 32,000  Level FlightAware
08:45AM 47.2210 8.6150 308° West 464 534 32,000  Level FlightAware
08:46AM 47.2540 8.4980 293° West 458 527 32,000  Level FlightAware
08:46AM 47.2790 8.3700 286° West 455 524 32,000  Level FlightAware
08:47AM 47.3020 8.2460 285° West 458 527 32,000  Level FlightAware
08:48AM 47.3250 8.1290 286° West 458 527 32,000  Level FlightAware
08:48AM 47.3540 7.9890 287° West 457 526 32,000  Level FlightAware
08:49AM 47.3760 7.8810 287° West 457 526 32,000  Level FlightAware
08:50AM 47.4050 7.7380 287° West 460 529 32,000  Level FlightAware
08:50AM 47.4290 7.6150 286° West 461 531 32,000  Level FlightAware
08:51AM 47.4570 7.4770 287° West 464 534 32,000  Level FlightAware
08:52AM 47.4800 7.3560 286° West 466 536 32,000  Level FlightAware
08:53AM 47.5040 7.2380 287° West 468 539 32,000  Level FlightAware
08:53AM 47.5310 7.0990 286° West 472 543 32,000  Level FlightAware
08:54AM 47.5560 6.9700 286° West 474 545 32,000  Level FlightAware
08:55AM 47.5820 6.8340 286° West 475 547 32,000  Level FlightAware
08:55AM 47.5980 6.7500 286° West 474 545 32,000  Level FlightAware
08:56AM 47.6220 6.6270 286° West 469 540 32,000  Level FlightAware
08:56AM 47.6410 6.5260 286° West 468 539 32,000  Level FlightAware
08:57AM 47.6680 6.3800 285° West 468 539 32,000  Level FlightAware
08:58AM 47.7020 6.2480 291° West 469 540 32,000  Level FlightAware
08:58AM 47.7430 6.1490 302° West 473 544 32,000  Level FlightAware
08:59AM 47.8060 6.0150 305° West 475 547 32,000  Level FlightAware
09:00AM 47.8440 5.9320 304° West 474 545 32,000  Level FlightAware
09:01AM 47.9040 5.7970 304° West 475 547 32,000  Level FlightAware
09:01AM 47.9520 5.6890 304° West 473 544 32,000  Level FlightAware
09:02AM 47.9949 5.5911 303° West 473 544 32,000  Level FlightAware ADS-B
09:02AM 48.0326 5.5051 303° West 473 544 32,000  Level FlightAware ADS-B
09:03AM 48.1050 5.3370 303° West 475 547 32,000  Level FlightAware
09:04AM 48.1530 5.2260 303° West 477 549 32,000  Level FlightAware
09:04AM 48.1677 5.1918 303° West 476 548 32,000  Level FlightAware ADS-B
09:05AM 48.2133 5.0859 303° West 476 548 32,000  Level FlightAware ADS-B
09:05AM 48.2490 5.0040 303° West 471 542 32,000  Level FlightAware
09:06AM 48.2830 4.9250 303° West 470 541 32,000  Level FlightAware
09:07AM 48.3420 4.7850 302° West 469 540 32,000  Level FlightAware
09:08AM 48.3960 4.6590 303° West 471 542 32,000  Level FlightAware
09:08AM 48.4430 4.5480 303° West 472 543 32,000  Level FlightAware
09:09AM 48.4890 4.4380 302° West 472 543 32,000  Level FlightAware
09:09AM 48.5232 4.3563 302° West 474 545 32,000  Level FlightAware ADS-B
09:10AM 48.5709 4.2420 302° West 475 547 32,000  Level FlightAware ADS-B
09:11AM 48.6064 4.1563 302° West 475 547 32,000  Level FlightAware ADS-B
09:11AM 48.6416 4.0712 302° West 475 547 32,000  Level FlightAware ADS-B
09:12AM 48.6775 3.9844 302° West 473 544 32,000  Level FlightAware ADS-B
09:12AM 48.6964 3.9403 303° West 475 547 32,000  Level FlightAware ADS-B
09:12AM 48.7224 3.8960 312° West 476 548 32,000  Level FlightAware ADS-B
09:12AM 48.7538 3.8541 319° Northwest 477 549 32,000  Level FlightAware ADS-B
09:13AM 48.8070 3.7950 324° Northwest 475 547 32,000  Level FlightAware
09:13AM 48.8367 3.7642 326° Northwest 475 547 32,000  Level FlightAware ADS-B
09:14AM 48.8920 3.7080 326° Northwest 475 547 32,000  Level FlightAware ADS-B
09:14AM 48.9125 3.6871 326° Northwest 474 545 32,000  Level FlightAware ADS-B
09:14AM 48.9240 3.6769 330° Northwest 473 544 32,000  Level FlightAware ADS-B
09:15AM 48.9863 3.6281 333° Northwest 474 545 32,000  Level FlightAware ADS-B
09:15AM 49.0440 3.5840 333° Northwest 473 544 32,000  Level FlightAware
09:15AM 49.0669 3.5666 334° Northwest 474 545 32,000  Level FlightAware ADS-B
09:16AM 49.1353 3.5138 333° Northwest 474 545 32,000  Level FlightAware ADS-B
09:16AM 49.1995 3.4642 333° Northwest 476 548 32,000  Level FlightAware ADS-B
09:17AM 49.2584 3.4180 333° Northwest 475 547 32,000  Level FlightAware ADS-B
09:17AM 49.3185 3.3710 333° Northwest 476 548 32,000  Level FlightAware ADS-B
09:18AM 49.3776 3.3250 333° Northwest 476 548 32,000  Level FlightAware ADS-B
09:18AM 49.4371 3.2786 333° Northwest 476 548 32,000  Level FlightAware ADS-B
09:19AM 49.4983 3.2308 333° Northwest 477 549 32,000 -1,860 Level FlightAware ADS-B
09:19AM 49.5359 3.1930 333° Northwest 1 1 30,400  Descending FlightAware UK
09:19AM 49.5575 3.1844 333° Northwest 475 547 32,000 3,060 Climbing FlightAware ADS-B
09:20AM 49.5999 3.1415 327° Northwest 478 550 32,000  Level FlightAware ADS-B
09:20AM 49.6340 3.0982 321° Northwest 482 555 32,000 -2,580 Level FlightAware ADS-B
09:20AM 49.6556 3.0712 321° Northwest 1 1 30,500  Descending FlightAware UK
09:21AM 49.6860 3.0239 321° Northwest 486 559 32,000 1,860 Climbing FlightAware ADS-B
09:21AM 49.7374 2.9474 316° Northwest 484 557 32,000 -1,860 Level FlightAware ADS-B
09:21AM 49.7601 2.9110 316° Northwest 1 1 30,500  Descending FlightAware UK
09:22AM 49.7953 2.8630 316° Northwest 485 558 32,000 1,440 Climbing FlightAware ADS-B
09:22AM 49.8675 2.7595 317° Northwest 487 560 32,000  Level FlightAware ADS-B
09:23AM 49.9228 2.6810 318° Northwest 490 564 32,000 -1,800 Level FlightAware ADS-B
09:24AM 49.9678 2.6131 318° Northwest 402 463 30,100 -1,080 Descending FlightAware UK
09:24AM 49.9896 2.5859 318° Northwest 485 558 31,300 -2,040 Climbing FlightAware ADS-B
09:24AM 50.0071 2.5563 318° Northwest 400 460 29,300 -1,920 Descending FlightAware UK
09:24AM 50.0415 2.5118 318° Northwest 483 556 30,300 -2,040 Climbing FlightAware ADS-B
09:25AM 50.0660 2.4718 318° Northwest 402 463 28,100 -2,040 Descending FlightAware UK
09:25AM 50.0919 2.4401 318° Northwest 486 559 29,300 -2,220 Climbing FlightAware ADS-B
09:25AM 50.1153 2.4013 318° Northwest 404 465 27,000 -2,100 Descending FlightAware UK
09:25AM 50.1441 2.3671 318° Northwest 488 562 28,200 120 Climbing FlightAware ADS-B
09:26AM 50.1950 2.2964 318° Northwest 489 563 27,100 -3,660 Descending FlightAware ADS-B
09:26AM 50.2258 2.2472 318° Northwest 404 465 25,000 -1,260 Descending FlightAware UK
09:26AM 50.2511 2.2173 318° Northwest 471 542 26,400 840 Climbing FlightAware ADS-B
09:27AM 50.2982 2.1512 318° Northwest 445 512 25,600 -3,720 Descending FlightAware ADS-B
09:27AM 50.3178 2.1176 318° Northwest 390 449 23,400 -2,160 Descending FlightAware UK
09:27AM 50.3444 2.0883 318° Northwest 436 502 24,500 -2,220 Climbing FlightAware ADS-B
09:28AM 50.3723 2.0435 318° Northwest 378 435 22,100 -2,220 Descending FlightAware UK
09:28AM 50.3945 2.0190 318° Northwest 431 496 23,300 -2,040 Climbing FlightAware ADS-B
09:28AM 50.4079 1.9940 318° Northwest 376 433 21,300 -4,920 Descending FlightAware UK
09:28AM 50.4341 1.9564 318° Northwest 372 428 20,600 1,440 Descending FlightAware UK
09:29AM 50.4528 1.9363 318° Northwest 427 491 21,900 -2,040 Climbing FlightAware ADS-B
09:29AM 50.4677 1.9072 318° Northwest 372 428 19,800 -1,920 Descending FlightAware UK
09:29AM 50.5124 1.8534 318° Northwest 417 480 20,600 -2,040 Climbing FlightAware ADS-B
09:30AM 50.5284 1.8236 318° Northwest 362 417 18,400 -2,100 Descending FlightAware UK
09:30AM 50.5624 1.7854 318° Northwest 408 470 19,400 -2,040 Climbing FlightAware ADS-B
09:30AM 50.5797 1.7538 318° Northwest 358 412 17,200 -2,040 Descending FlightAware UK
09:30AM 50.6166 1.7103 318° Northwest 395 455 18,100 -2,040 Climbing FlightAware ADS-B
09:31AM 50.6286 1.6858 318° Northwest 354 407 16,000 -1,980 Descending FlightAware UK
09:31AM 50.6588 1.6508 318° Northwest 384 442 17,100 -1,860 Climbing FlightAware ADS-B
09:31AM 50.6756 1.6185 318° Northwest 344 396 14,900 -1,980 Descending FlightAware UK
09:32AM 50.7033 1.5881 318° Northwest 370 426 16,000 -1,860 Climbing FlightAware ADS-B
09:32AM 50.7209 1.5544 318° Northwest 340 391 13,800 -1,800 Descending FlightAware UK
09:32AM 50.7455 1.5289 318° Northwest 360 414 15,000 -1,800 Climbing FlightAware ADS-B
09:32AM 50.7579 1.5029 318° Northwest 328 377 12,900 -3,720 Descending FlightAware UK
09:33AM 50.7945 1.4517 319° Northwest 332 382 12,000 360 Descending FlightAware UK
09:33AM 50.8190 1.4260 319° Northwest 344 396 13,200 -1,500 Climbing FlightAware
09:34AM 50.8367 1.3918 319° Northwest 322 371 11,100 -1,500 Descending FlightAware UK
09:34AM 50.8710 1.3530 319° Northwest 324 373 12,100 -1,560 Climbing FlightAware
09:34AM 50.8971 1.3057 319° Northwest 318 366 9,700 -1,500 Descending FlightAware UK
09:35AM 50.9150 1.2900 319° Northwest 312 359 11,100 -1,320 Climbing FlightAware
09:35AM 50.9411 1.2398 319° Northwest 298 343 8,800 -1,200 Descending FlightAware UK
09:35AM 50.9610 1.2210 319° Northwest 294 338 10,200 -1,200 Climbing FlightAware
09:36AM 50.9763 1.1870 319° Northwest 284 327 8,100 -1,440 Descending FlightAware UK
09:36AM 50.9860 1.1840 319° Northwest 289 333 9,600 -1,320 Climbing FlightAware
09:36AM 50.9998 1.1527 319° Northwest 284 327 7,600 -1,200 Descending FlightAware UK
09:36AM 51.0110 1.1470 319° Northwest 290 334 9,100 -1,200 Climbing FlightAware
09:37AM 51.0292 1.1088 319° Northwest 282 325 7,000 -1,200 Descending FlightAware UK
09:37AM 51.0400 1.1040 319° Northwest 286 329 8,500 1,500 Climbing FlightAware
09:37AM 51.0680 1.0610 316° Northwest 272 313 7,900 -3,240 Descending FlightAware
09:38AM 51.0800 1.0319 316° Northwest 276 318 5,900 -1,200 Descending FlightAware UK
09:38AM 51.0910 1.0260 316° Northwest 270 311 7,400 -1,020 Climbing FlightAware
09:38AM 51.1022 0.9987 316° Northwest 276 318 5,500 -840 Descending FlightAware UK
09:38AM 51.1190 0.9840 316° Northwest 272 313 7,000 1,560 Climbing FlightAware
09:39AM 51.1460 0.9430 316° Northwest 260 299 6,600 -780 Descending FlightAware
09:39AM 51.1640 0.9040 306° West 260 299 6,300 -2,880 Descending FlightAware
09:39AM 51.1691 0.8724 306° West 272 313 4,600 -420 Descending FlightAware UK
09:40AM 51.1860 0.8560 306° West 265 305 6,100  Climbing FlightAware
09:40AM 51.1917 0.8258 306° West 272 313 4,600  Descending FlightAware UK
09:40AM 51.2050 0.8180 306° West 265 305 6,100  Climbing FlightAware
09:40AM 51.2102 0.7890 306° West 272 313 4,600  Descending FlightAware UK
09:40AM 51.2280 0.7710 306° West 264 304 6,100 -180 Climbing FlightAware
09:41AM 51.2376 0.7335 306° West 272 313 4,500 -240 Descending FlightAware UK
09:41AM 51.2500 0.7250 306° West 264 304 6,000 -1,260 Climbing FlightAware
09:41AM 51.2557 0.6965 306° West 268 308 4,000 -1,200 Descending FlightAware UK
09:41AM 51.2680 0.6890 306° West 260 299 5,500 -1,800 Climbing FlightAware
09:42AM 51.2736 0.6598 306° West 268 308 3,300 -1,800 Descending FlightAware UK
09:42AM 51.2910 0.6410 306° West 261 300 4,600 -1,200 Climbing FlightAware
09:42AM 51.2999 0.6048 306° West 262 302 2,600 -960 Descending FlightAware UK
09:42AM 51.3090 0.6030 306° West 254 292 4,200 2,640 Climbing FlightAware
09:43AM 51.3260 0.5600 302° West 250 288 4,100 -540 Descending FlightAware
09:43AM 51.3490 0.5020 302° West 255 293 3,700 -720 Descending FlightAware
09:44AM 51.3590 0.4790 305° West 253 291 3,600 -3,420 Descending FlightAware
09:44AM 51.3608 0.4522 305° West 260 299 1,900 -480 Descending FlightAware UK
09:44AM 51.3740 0.4410 305° West 252 290 3,400 3,600 Climbing FlightAware
09:44AM 51.3840 0.4170 304° West 251 289 3,300 -300 Descending FlightAware
09:45AM 51.4010 0.3770 304° West 250 288 3,200 -2,400 Descending FlightAware
09:45AM 51.4034 0.3498 304° West 258 297 1,600 -240 Descending FlightAware UK
09:45AM 51.4190 0.3320 304° West 254 292 3,100 3,300 Climbing FlightAware
09:45AM 51.4250 0.3040 289° West 258 297 3,100 -1,500 Level FlightAware
09:46AM 51.4149 0.2159 289° West 260 299 1,600  Descending FlightAware UK
09:46AM 51.4240 0.2010 289° West 262 302 3,100 1,620 Climbing FlightAware
09:47AM 51.4250 0.1390 272° West 259 298 2,700 -2,760 Descending FlightAware
09:47AM 51.4175 0.1002 272° West 256 295 800 -960 Descending FlightAware UK
09:47AM 51.4270 0.0920 272° West 259 298 2,300 2,220 Climbing FlightAware
09:48AM 51.4280 0.0380 272° West 239 275 2,100 -300 Descending FlightAware
09:48AM 51.4290 0.0120 274° West 226 260 2,100  Level FlightAware
09:48AM 51.4310 -0.0280 275° West 203 234 2,100 -1,740 Level FlightAware
09:49AM 51.4260 -0.0681 275° West 196 226 600  Descending FlightAware UK
09:49AM 51.4340 -0.0720 275° West 194 223 2,100  Climbing FlightAware
09:49AM 51.4278 -0.0937 275° West 192 221 600  Descending FlightAware UK
09:49AM 51.4370 -0.1060 275° West 194 223 2,100 3,600 Climbing FlightAware
09:50AM 51.4450 -0.1240 305° West 180 207 2,100 180 Level FlightAware
09:50AM 51.4570 -0.1290 345° North 179 206 2,200 120 Climbing FlightAware
09:50AM 51.4750 -0.1270 North 155 178 2,200 -2,280 Level FlightAware
09:51AM 51.4828 -0.1241 North 162 186 600  Descending FlightAware UK
09:51AM 51.4960 -0.1240 North 149 171 2,200 3,300 Climbing FlightAware
09:51AM 51.5050 -0.1210 12° North 147 169 2,100  Descending FlightAware
09:51AM 51.5110 -0.1110 46° Northeast 152 175 2,200 180 Climbing FlightAware
09:51AM 51.5160 -0.0900 69° East 158 182 2,200  Level FlightAware
09:52AM 51.5170 -0.0630 87° East 145 167 2,200 -2,400 Level FlightAware
09:52AM 51.5088 -0.0412 87° East 138 159 600 -600 Descending FlightAware UK
09:52AM 51.5150 -0.0310 87° East 120 138 1,900 1,200 Climbing FlightAware
09:53AM 51.5140 -0.0100 94° East 122 140 1,400 -1,200 Descending FlightAware
09:53AM 51.5130 0.0170 93° East 117 135 800 -1,140 Descending FlightAware
09:54AM 51.5120 0.0410 94° East 121 139 300 -600 Descending FlightAware
09:54AM 51.5110 0.0630 94° East 121 139 300  Level FlightAware
09:57AM 51.5053 0.0553 220° Southwest  Level Estimated
09:58AM 51.5053 0.0553 212° Southwest  Level Estimated
09:59AM 51.5053 0.0553 212° Southwest  Level Estimated
10:00AM 51.5053 0.0553 212° Southwest  Level Estimated
10:01AM 51.5053 0.0553 212° Southwest  Level Estimated
10:02AM 51.5053 0.0553 212° Southwest  Level Estimated
10:03AM 51.5053 0.0553 212° Southwest  Level Estimated